Current Weather

Yenbo

Yenbo, Saudi Arabia (OEYN)

Report from: Monday, July 22, 2024 12:00 PM +03
Current time: Monday, July 22, 2024 1:00 PM +03

Nearby weather – Weather history – Daily summaries
Weather forecast

Temperature39.0°C (102.2°F)
Heat index43.6°C (110.5°F)
Dew point21.0°C (69.8°F)
Winds 8 kts (4.1 m/s, 9.2 mph) Southwest (230°)
Clouds Sky clear
Altimeter29.59 in.Hg (1002 mB)
Relative humidity36 %
Density altitude3,413 ft. (1,040 m)
Remarks Ceiling and visibility OK
No significant changes expected in the next two hours
Flight conditions Visual Meteorological Conditions
Raw dataOEYN 220900Z 23008KT CAVOK 39/21 Q1002 NOSIG
An error has occurred. This application may no longer respond until reloaded. Reload 🗙